Time;durP1;ratioP1;P1;durP2;ratioP2;P2;SDS_P1;SDS_P2;PMS_P1;PMS_P2;Temp;Humidity;BMP_temperature;BMP_pressure;BME280_temperature;BME280_humidity;BME280_pressure;Samples;Min_cycle;Max_cycle;Signal;HPM_P1;HPM_P2
2022/03/17 04:02:33;;;;;;;3.45;2.85;;;17.60;50.00;;;;;;4939834;28;45555;-65
2022/03/17 04:04:59;;;;;;;2.90;2.60;;;17.60;50.00;;;;;;4954037;28;45623;-65
2022/03/17 04:07:25;;;;;;;2.90;2.60;;;17.60;49.90;;;;;;4935792;28;48024;-66
2022/03/17 04:09:50;;;;;;;2.83;2.53;;;17.60;49.90;;;;;;4938316;28;45115;-64
2022/03/17 04:12:16;;;;;;;2.78;2.35;;;17.60;50.00;;;;;;4952081;28;45572;-66
2022/03/17 04:14:42;;;;;;;2.80;2.50;;;17.60;50.00;;;;;;4971244;28;45807;-64
2022/03/17 04:17:07;;;;;;;2.92;2.50;;;17.60;49.90;;;;;;4968668;28;45277;-63
2022/03/17 04:19:33;;;;;;;3.38;2.80;;;17.60;49.90;;;;;;4970330;28;45289;-63
2022/03/17 04:21:59;;;;;;;2.60;2.38;;;17.60;49.90;;;;;;4970386;28;44917;-63
2022/03/17 04:24:24;;;;;;;3.00;2.58;;;17.60;50.00;;;;;;4970803;28;45725;-65
2022/03/17 04:26:50;;;;;;;2.70;2.50;;;17.60;50.00;;;;;;4972184;28;46264;-63
2022/03/17 04:29:16;;;;;;;2.72;2.53;;;17.50;50.00;;;;;;4960872;28;45241;-64
2022/03/17 04:31:43;;;;;;;2.50;2.30;;;17.60;50.00;;;;;;4966235;28;45602;-63
2022/03/17 04:34:08;;;;;;;2.90;2.60;;;17.50;50.60;;;;;;4967466;28;45160;-65
2022/03/17 04:36:34;;;;;;;3.20;2.90;;;17.50;50.00;;;;;;4971174;28;46284;-62
2022/03/17 04:39:00;;;;;;;2.72;2.50;;;17.50;50.00;;;;;;4969084;28;45199;-62
2022/03/17 04:41:26;;;;;;;2.60;2.40;;;17.50;50.00;;;;;;4965735;28;45471;-62
2022/03/17 04:43:51;;;;;;;2.53;2.33;;;17.50;50.00;;;;;;4972202;28;45413;-65
2022/03/17 04:46:17;;;;;;;2.85;2.55;;;17.50;50.00;;;;;;4971236;28;46425;-61
2022/03/17 04:48:43;;;;;;;2.47;2.28;;;17.50;50.00;;;;;;4975223;28;45377;-61
2022/03/17 04:51:08;;;;;;;2.72;2.45;;;17.50;50.00;;;;;;4972880;28;45499;-63
2022/03/17 04:53:34;;;;;;;2.85;2.30;;;17.50;50.00;;;;;;4976282;28;45454;-64
2022/03/17 04:56:04;;;;;;;2.75;2.55;;;17.50;50.10;;;;;;4975954;28;45287;-61
2022/03/17 04:58:31;;;;;;;2.80;2.42;;;17.50;50.10;;;;;;4969436;28;44708;-66
2022/03/17 05:00:57;;;;;;;3.15;2.67;;;17.50;50.00;;;;;;4976240;28;45456;-64
2022/03/17 05:03:23;;;;;;;2.60;2.40;;;17.50;50.00;;;;;;4976097;28;45207;-64
2022/03/17 05:05:49;;;;;;;2.70;2.50;;;17.40;50.00;;;;;;4976453;28;45244;-62
2022/03/17 05:08:14;;;;;;;2.38;2.17;;;17.50;50.00;;;;;;4966081;28;44883;-66
2022/03/17 05:10:40;;;;;;;2.83;2.53;;;17.40;50.00;;;;;;4957171;28;45479;-62
2022/03/17 05:13:07;;;;;;;2.90;2.67;;;17.40;50.00;;;;;;4971616;28;45569;-64
2022/03/17 05:15:33;;;;;;;2.90;2.70;;;17.40;50.00;;;;;;4969195;28;46156;-63
2022/03/17 05:17:58;;;;;;;3.10;2.60;;;17.40;50.10;;;;;;4958106;28;45336;-62
2022/03/17 05:20:24;;;;;;;2.85;2.65;;;17.40;50.00;;;;;;4973873;28;44854;-64
2022/03/17 05:22:50;;;;;;;2.83;2.63;;;17.40;50.00;;;;;;4976666;28;45481;-65
2022/03/17 05:25:16;;;;;;;2.58;2.38;;;17.40;50.10;;;;;;4968408;28;46239;-68
2022/03/17 05:27:42;;;;;;;2.50;2.30;;;17.40;50.10;;;;;;4973654;28;45244;-63
2022/03/17 05:30:15;;;;;;;3.03;2.72;;;17.40;50.10;;;;;;4973510;28;44769;-65
2022/03/17 05:32:44;;;;;;;3.08;2.78;;;17.40;50.10;;;;;;4971687;28;45258;-64
2022/03/17 05:35:10;;;;;;;2.92;2.22;;;17.40;50.10;;;;;;4973015;28;45267;-66
2022/03/17 05:37:35;;;;;;;3.28;2.67;;;17.30;50.00;;;;;;4975608;28;45384;-63
2022/03/17 05:40:04;;;;;;;2.72;2.53;;;17.40;50.10;;;;;;4958549;28;45372;-66
2022/03/17 05:42:31;;;;;;;2.67;2.47;;;17.30;50.00;;;;;;4974818;28;45316;-65
2022/03/17 05:44:56;;;;;;;2.47;2.25;;;17.30;50.10;;;;;;4976257;28;46399;-65
2022/03/17 05:47:22;;;;;;;3.13;2.83;;;17.30;50.10;;;;;;4969891;28;45003;-62
2022/03/17 05:49:48;;;;;;;3.17;2.78;;;17.30;50.10;;;;;;4952402;28;44782;-64
2022/03/17 05:52:14;;;;;;;2.22;2.03;;;17.30;50.10;;;;;;4951742;28;46592;-64
2022/03/17 05:54:40;;;;;;;3.30;3.00;;;17.30;50.10;;;;;;4969160;28;46090;-64
2022/03/17 05:57:10;;;;;;;2.58;2.38;;;17.30;50.10;;;;;;4974207;28;44777;-63
2022/03/17 05:59:39;;;;;;;2.92;2.65;;;17.30;50.10;;;;;;4972886;28;45444;-64
2022/03/17 06:02:05;;;;;;;2.63;2.38;;;17.30;50.10;;;;;;4968594;28;44998;-63
2022/03/17 06:04:31;;;;;;;3.10;2.80;;;17.30;50.10;;;;;;4967474;28;46154;-65
2022/03/17 06:06:56;;;;;;;2.78;2.55;;;17.30;50.10;;;;;;4974901;28;45695;-63
2022/03/17 06:09:22;;;;;;;2.97;2.67;;;17.30;50.10;;;;;;4971677;28;45544;-65
2022/03/17 06:11:47;;;;;;;2.58;2.38;;;17.30;50.10;;;;;;4970208;28;45553;-63
2022/03/17 06:14:13;;;;;;;2.70;2.50;;;17.30;50.10;;;;;;4954412;28;45035;-63
2022/03/17 06:16:38;;;;;;;3.30;2.83;;;17.20;50.10;;;;;;4974898;28;44998;-63
2022/03/17 06:19:04;;;;;;;2.90;2.60;;;17.20;50.10;;;;;;4971457;28;44922;-64
2022/03/17 06:21:30;;;;;;;3.10;2.70;;;17.20;50.10;;;;;;4975281;28;46025;-63
2022/03/17 06:23:55;;;;;;;3.42;2.88;;;17.20;50.10;;;;;;4970994;28;45090;-63
2022/03/17 06:26:21;;;;;;;2.95;2.65;;;17.20;50.10;;;;;;4968066;28;45267;-63
2022/03/17 06:28:46;;;;;;;2.85;2.65;;;17.20;50.10;;;;;;4967929;28;45312;-63
2022/03/17 06:31:12;;;;;;;3.47;2.55;;;17.20;50.10;;;;;;4969522;28;44973;-64
2022/03/17 06:33:38;;;;;;;2.97;2.65;;;17.20;50.20;;;;;;4971880;28;45824;-63
2022/03/17 06:36:04;;;;;;;3.03;2.72;;;17.20;50.10;;;;;;4973097;28;45248;-63
2022/03/17 06:38:30;;;;;;;2.70;2.50;;;17.20;50.10;;;;;;4975297;28;45408;-62
2022/03/17 06:40:55;;;;;;;3.20;2.90;;;17.10;50.10;;;;;;5009174;28;45864;-64
2022/03/17 06:43:21;;;;;;;3.38;2.97;;;17.20;50.10;;;;;;4941847;28;47224;-63
2022/03/17 06:45:46;;;;;;;3.28;2.80;;;17.10;50.10;;;;;;4957579;28;45238;-62
2022/03/17 06:48:12;;;;;;;2.92;2.55;;;17.10;50.10;;;;;;4973477;28;45157;-64
2022/03/17 06:50:38;;;;;;;3.45;3.00;;;17.10;50.10;;;;;;4982374;28;45262;-63
2022/03/17 06:53:03;;;;;;;3.08;2.78;;;17.10;50.10;;;;;;4973454;28;46478;-64
2022/03/17 06:55:31;;;;;;;2.70;2.50;;;17.10;50.00;;;;;;4984014;28;45542;-63
2022/03/17 06:57:57;;;;;;;3.25;2.95;;;17.10;50.00;;;;;;4969570;28;44766;-64
2022/03/17 07:00:22;;;;;;;5.18;2.85;;;17.10;50.10;;;;;;4972616;28;45356;-66
2022/03/17 07:02:48;;;;;;;2.97;2.78;;;17.10;50.10;;;;;;4966849;28;45407;-60
2022/03/17 07:05:14;;;;;;;2.97;2.67;;;17.20;50.10;;;;;;4977036;28;45517;-61
2022/03/17 07:07:40;;;;;;;3.53;3.22;;;17.30;49.90;;;;;;4979032;28;45140;-62
2022/03/17 07:10:06;;;;;;;3.45;2.67;;;17.30;49.80;;;;;;4977085;28;45497;-62
2022/03/17 07:12:33;;;;;;;2.78;2.45;;;17.40;49.70;;;;;;4975238;28;45479;-63
2022/03/17 07:14:58;;;;;;;2.80;2.60;;;17.40;49.50;;;;;;4972323;28;45466;-65
2022/03/17 07:17:24;;;;;;;2.40;2.20;;;17.60;49.40;;;;;;4962579;28;45187;-64
2022/03/17 07:22:26;;;;;;;2.55;2.35;;;17.80;49.10;;;;;;4978077;28;45983;-65
2022/03/17 07:24:51;;;;;;;3.10;2.80;;;17.90;49.00;;;;;;4959620;28;45339;-66
2022/03/17 07:27:17;;;;;;;2.75;2.55;;;18.00;48.90;;;;;;4962375;28;46055;-63
2022/03/17 07:29:44;;;;;;;2.22;2.03;;;18.10;48.80;;;;;;4980506;28;45507;-61
2022/03/17 07:32:10;;;;;;;2.40;2.20;;;18.20;48.70;;;;;;4978242;28;44976;-62
2022/03/17 07:34:35;;;;;;;2.45;2.25;;;18.30;48.60;;;;;;4962007;28;45115;-61
2022/03/17 07:37:01;;;;;;;2.15;1.95;;;18.40;48.40;;;;;;4979089;28;44752;-60
2022/03/17 07:39:26;;;;;;;2.35;2.15;;;18.50;48.30;;;;;;4979743;28;45359;-64
2022/03/17 07:41:52;;;;;;;2.08;1.95;;;18.60;48.20;;;;;;4976413;28;45390;-61
2022/03/17 07:44:17;;;;;;;2.42;2.20;;;18.70;48.20;;;;;;4977549;28;45305;-63
2022/03/17 07:46:43;;;;;;;2.42;2.22;;;18.80;48.10;;;;;;4976890;28;45618;-61
2022/03/17 07:49:09;;;;;;;1.95;1.75;;;18.90;48.60;;;;;;4977786;28;45483;-62
2022/03/17 07:51:36;;;;;;;2.55;2.35;;;19.00;47.90;;;;;;4977805;28;45446;-62
2022/03/17 07:54:01;;;;;;;2.20;2.00;;;19.10;47.80;;;;;;4977563;28;45287;-61
2022/03/17 07:56:27;;;;;;;2.65;2.30;;;19.20;47.80;;;;;;4978026;28;45346;-64
2022/03/17 07:58:53;;;;;;;2.55;2.35;;;19.30;47.70;;;;;;4977629;28;46090;-62
2022/03/17 08:01:18;;;;;;;1.95;1.85;;;19.40;48.20;;;;;;4958238;28;47346;-59
2022/03/17 08:03:44;;;;;;;3.10;2.40;;;19.50;47.50;;;;;;4979237;28;45476;-64
2022/03/17 08:06:12;;;;;;;2.53;2.17;;;19.60;47.50;;;;;;4977436;28;45420;-63
2022/03/17 08:08:38;;;;;;;2.53;2.33;;;19.60;47.30;;;;;;4977285;28;45397;-61
2022/03/17 08:11:03;;;;;;;2.10;1.90;;;19.70;47.30;;;;;;4975466;28;46883;-62
2022/03/17 08:13:29;;;;;;;1.83;1.73;;;19.80;47.30;;;;;;4962078;28;45191;-59
2022/03/17 08:15:54;;;;;;;2.05;1.85;;;19.90;47.20;;;;;;4974878;28;44895;-59
2022/03/17 08:18:20;;;;;;;2.05;1.85;;;20.00;47.10;;;;;;4977203;28;45161;-62
2022/03/17 08:20:45;;;;;;;1.67;1.58;;;20.10;47.00;;;;;;4982184;28;46075;-63
2022/03/17 08:23:15;;;;;;;2.25;2.05;;;20.20;46.90;;;;;;4967565;28;45411;-63
2022/03/17 08:25:41;;;;;;;1.80;1.70;;;20.20;46.80;;;;;;4991008;28;45789;-63
2022/03/17 08:28:08;;;;;;;2.05;1.85;;;20.30;46.80;;;;;;4991703;28;45156;-65
2022/03/17 08:30:36;;;;;;;2.08;1.88;;;20.40;46.70;;;;;;4975213;28;46717;-67
2022/03/17 08:33:01;;;;;;;2.05;1.85;;;20.50;46.70;;;;;;4975271;28;45806;-66
2022/03/17 08:35:27;;;;;;;1.98;1.88;;;20.50;46.50;;;;;;4950936;28;45091;-63
2022/03/17 08:37:53;;;;;;;2.00;1.80;;;20.60;46.50;;;;;;4978145;28;45876;-61
2022/03/17 08:40:18;;;;;;;1.50;1.40;;;20.70;46.40;;;;;;4960137;28;45771;-67
2022/03/17 08:42:44;;;;;;;2.13;1.92;;;20.80;46.30;;;;;;4975930;28;45455;-68
2022/03/17 08:50:39;;;;;;;1.60;1.50;;;21.10;46.10;;;;;;4976795;28;45324;-65
2022/03/17 08:53:05;;;;;;;3.45;1.55;;;21.10;46.00;;;;;;4985723;28;44957;-63
2022/03/17 08:55:31;;;;;;;1.63;1.52;;;21.20;46.00;;;;;;4960972;28;45115;-62
2022/03/17 08:57:57;;;;;;;1.55;1.45;;;21.30;45.90;;;;;;4979519;28;45510;-62
2022/03/17 09:00:23;;;;;;;1.60;1.50;;;21.40;45.80;;;;;;4976492;28;45333;-62
2022/03/17 09:02:49;;;;;;;1.77;1.67;;;21.50;45.80;;;;;;4977685;28;45348;-64
2022/03/17 09:05:14;;;;;;;1.83;1.73;;;21.50;45.70;;;;;;4968166;28;45198;-65
2022/03/17 09:07:40;;;;;;;1.50;1.40;;;21.60;45.60;;;;;;4971524;28;44895;-63
2022/03/17 09:10:06;;;;;;;3.45;1.58;;;21.70;45.50;;;;;;4976598;28;46079;-63
2022/03/17 09:12:33;;;;;;;1.67;1.58;;;21.70;45.40;;;;;;4977922;28;45374;-66
2022/03/17 09:14:59;;;;;;;1.58;1.40;;;21.80;45.40;;;;;;4977307;28;44752;-64
2022/03/17 09:17:25;;;;;;;2.10;1.90;;;21.90;45.30;;;;;;4974532;28;45432;-63
2022/03/17 09:19:50;;;;;;;1.60;1.50;;;22.00;45.20;;;;;;4983336;28;46162;-66
2022/03/17 09:22:16;;;;;;;1.90;1.80;;;22.10;45.20;;;;;;4983772;28;44797;-64
2022/03/17 09:24:41;;;;;;;1.58;1.48;;;22.10;45.10;;;;;;4986139;28;45540;-66
2022/03/17 09:27:09;;;;;;;3.50;1.40;;;22.20;45.00;;;;;;4985493;28;45330;-64
2022/03/17 09:29:38;;;;;;;1.60;1.50;;;22.20;45.00;;;;;;4975597;28;45223;-67
2022/03/17 09:32:04;;;;;;;2.17;1.70;;;22.30;45.00;;;;;;4960099;28;44662;-63
2022/03/17 09:34:32;;;;;;;2.38;1.48;;;22.40;44.90;;;;;;4976596;28;45438;-61
2022/03/17 09:36:57;;;;;;;1.98;1.77;;;22.40;44.80;;;;;;4974828;28;45458;-63
2022/03/17 09:42:07;;;;;;;1.50;1.40;;;22.60;44.80;;;;;;4975067;28;45358;-65
2022/03/17 09:44:33;;;;;;;1.50;1.40;;;22.60;44.70;;;;;;4974792;28;45404;-61
2022/03/17 09:46:59;;;;;;;3.08;1.60;;;22.70;44.60;;;;;;4969534;28;45612;-61
2022/03/17 09:49:26;;;;;;;1.50;1.33;;;22.70;44.50;;;;;;4966817;28;45406;-61
2022/03/17 09:51:55;;;;;;;1.60;1.50;;;22.80;44.50;;;;;;4974203;28;45246;-64
2022/03/17 09:54:21;;;;;;;1.63;1.52;;;22.80;44.50;;;;;;4973553;28;45392;-63
2022/03/17 09:56:46;;;;;;;1.55;1.45;;;22.90;44.40;;;;;;4976463;28;45544;-62
2022/03/17 09:59:12;;;;;;;1.75;1.65;;;22.90;44.40;;;;;;4975287;28;46145;-63
2022/03/17 10:01:38;;;;;;;1.55;1.40;;;23.00;44.30;;;;;;4972862;28;45638;-61
2022/03/17 10:04:04;;;;;;;1.45;1.35;;;23.10;44.30;;;;;;4976176;28;45215;-63
2022/03/17 10:06:29;;;;;;;1.50;1.40;;;23.10;44.30;;;;;;4975288;28;45298;-63
2022/03/17 10:08:55;;;;;;;1.38;1.27;;;23.10;44.20;;;;;;4974746;28;46775;-67
2022/03/17 10:11:31;;;;;;;1.40;1.30;;;23.20;44.20;;;;;;4977508;28;44754;-66
2022/03/17 10:13:57;;;;;;;1.55;1.45;;;23.20;44.00;;;;;;4959311;28;45518;-66
2022/03/17 10:16:24;;;;;;;1.48;1.27;;;23.30;44.20;;;;;;4964555;28;45502;-65
2022/03/17 10:19:03;;;;;;;1.40;1.30;;;23.30;44.10;;;;;;4956633;28;46219;-63
2022/03/17 10:21:29;;;;;;;1.50;1.40;;;23.30;43.90;;;;;;4984930;28;45198;-67
2022/03/17 10:23:59;;;;;;;1.60;1.45;;;23.40;44.10;;;;;;4966577;28;45482;-64
2022/03/17 10:26:46;;;;;;;1.30;1.20;;;23.40;43.90;;;;;;4965928;28;45592;-63
2022/03/17 10:29:22;;;;;;;1.48;1.38;;;23.40;43.60;;;;;;4973030;28;45604;-63
2022/03/17 10:32:03;;;;;;;1.30;1.20;;;23.50;43.90;;;;;;4975215;28;44854;-65
2022/03/17 10:34:51;;;;;;;1.30;1.20;;;23.60;43.70;;;;;;4976610;28;45407;-64
2022/03/17 10:37:21;;;;;;;1.55;1.45;;;23.50;43.80;;;;;;4973994;28;45358;-67
2022/03/17 10:39:52;;;;;;;1.30;1.20;;;23.60;43.80;;;;;;4979309;28;46071;-65
2022/03/17 10:42:18;;;;;;;1.70;1.40;;;23.60;43.70;;;;;;4978420;28;45520;-67
2022/03/17 10:44:47;;;;;;;1.35;1.25;;;23.60;43.70;;;;;;4978907;28;45352;-64
2022/03/17 10:47:13;;;;;;;1.35;1.25;;;23.70;43.70;;;;;;4975622;28;45700;-63
2022/03/17 10:49:38;;;;;;;1.30;1.20;;;23.70;43.70;;;;;;4969408;28;45946;-65
2022/03/17 10:52:04;;;;;;;1.38;1.27;;;23.80;43.60;;;;;;4977616;28;44940;-61
2022/03/17 10:54:31;;;;;;;1.33;1.23;;;23.80;43.60;;;;;;4978588;28;45517;-60
2022/03/17 10:57:06;;;;;;;1.15;1.05;;;23.80;43.60;;;;;;4977049;28;45410;-61
2022/03/17 10:59:47;;;;;;;1.38;1.27;;;23.80;43.40;;;;;;4957298;28;47100;-65
2022/03/17 11:02:16;;;;;;;1.33;1.23;;;23.80;43.30;;;;;;4968305;28;45205;-65
2022/03/17 11:04:44;;;;;;;1.15;1.13;;;23.80;43.60;;;;;;4975874;28;45197;-62
2022/03/17 11:07:13;;;;;;;1.70;1.60;;;23.80;43.60;;;;;;4982408;28;44896;-62
2022/03/17 11:09:39;;;;;;;1.88;1.60;;;23.90;43.50;;;;;;4993922;28;46053;-62
2022/03/17 11:12:09;;;;;;;2.60;1.30;;;23.90;43.50;;;;;;4979631;28;44672;-62
2022/03/17 11:14:55;;;;;;;1.50;1.40;;;23.90;43.50;;;;;;4975253;28;44737;-63
2022/03/17 11:17:35;;;;;;;1.63;1.52;;;23.90;43.00;;;;;;4982705;28;44892;-64
2022/03/17 11:20:09;;;;;;;1.73;1.55;;;24.00;43.30;;;;;;4973197;28;45451;-61
2022/03/17 11:22:36;;;;;;;;;;;24.00;43.30;;;;;;4972136;28;45396;-65
2022/03/17 11:25:20;;;;;;;1.55;1.38;;;23.90;42.90;;;;;;4977226;28;45337;-65
2022/03/17 11:27:47;;;;;;;1.50;1.40;;;24.00;43.00;;;;;;4983386;28;45206;-62
2022/03/17 11:30:16;;;;;;;1.48;1.38;;;24.00;43.30;;;;;;4979411;28;46080;-64
2022/03/17 11:32:54;;;;;;;3.53;1.65;;;24.00;43.40;;;;;;4977783;28;45240;-62
2022/03/17 11:35:21;;;;;;;2.00;1.60;;;24.00;43.00;;;;;;4976648;28;45368;-62
2022/03/17 11:37:47;;;;;;;1.83;1.73;;;24.00;43.30;;;;;;4982381;28;45521;-67
2022/03/17 11:40:13;;;;;;;1.60;1.50;;;24.10;43.30;;;;;;4978410;28;46204;-62
2022/03/17 11:43:08;;;;;;;1.70;1.60;;;24.10;43.30;;;;;;4995302;28;45383;-61
2022/03/17 11:45:36;;;;;;;3.63;1.38;;;24.10;42.90;;;;;;4974676;28;45389;-66
2022/03/17 11:48:06;;;;;;;1.88;1.70;;;24.10;43.20;;;;;;4977112;28;45709;-64
2022/03/17 11:50:38;;;;;;;1.67;1.58;;;24.10;43.20;;;;;;4977513;28;45192;-66
2022/03/17 11:53:05;;;;;;;1.50;1.40;;;24.10;43.20;;;;;;4981725;28;45238;-64
2022/03/17 11:55:57;;;;;;;1.67;1.58;;;24.10;43.20;;;;;;4986070;28;45069;-64
2022/03/17 11:58:29;;;;;;;1.50;1.40;;;24.20;42.80;;;;;;4972200;28;44964;-64
2022/03/17 12:01:13;;;;;;;1.80;1.67;;;24.20;43.20;;;;;;4983192;28;46041;-65
2022/03/17 12:03:45;;;;;;;3.25;1.38;;;24.20;43.00;;;;;;4977766;28;45130;-68
2022/03/17 12:06:14;;;;;;;1.90;1.70;;;24.20;43.00;;;;;;4980938;28;45643;-67
2022/03/17 12:08:47;;;;;;;1.83;1.70;;;24.20;43.00;;;;;;4981159;28;45159;-65
2022/03/17 12:11:13;;;;;;;1.40;1.30;;;24.30;43.10;;;;;;4963078;28;46171;-65
2022/03/17 12:13:40;;;;;;;1.92;1.50;;;24.30;43.10;;;;;;4974709;28;44780;-64
2022/03/17 12:16:06;;;;;;;1.52;1.42;;;24.30;43.00;;;;;;4972235;28;44786;-67
2022/03/17 12:19:00;;;;;;;1.73;1.55;;;24.30;43.10;;;;;;4979878;28;45008;-65
2022/03/17 12:22:04;;;;;;;1.42;1.30;;;24.40;42.70;;;;;;4966450;28;45967;-65
2022/03/17 12:24:39;;;;;;;1.48;1.38;;;24.40;42.70;;;;;;4999272;28;45120;-63
2022/03/17 12:27:23;;;;;;;2.10;1.33;;;24.40;43.00;;;;;;4987156;28;44679;-67
2022/03/17 12:29:49;;;;;;;1.90;1.55;;;24.40;42.70;;;;;;4974096;28;45801;-66
2022/03/17 12:32:20;;;;;;;1.77;1.65;;;24.40;43.00;;;;;;4980021;28;45487;-64
2022/03/17 12:34:49;;;;;;;1.38;1.27;;;24.40;42.90;;;;;;4985328;28;45197;-65
2022/03/17 12:37:17;;;;;;;1.75;1.48;;;24.40;42.90;;;;;;4981006;28;45600;-65
2022/03/17 12:39:46;;;;;;;1.60;1.50;;;24.50;43.00;;;;;;4961099;28;45280;-65
2022/03/17 12:42:29;;;;;;;1.40;1.30;;;24.50;42.90;;;;;;4980365;28;45918;-65
2022/03/17 12:44:57;;;;;;;1.55;1.45;;;24.50;42.90;;;;;;4964116;28;44785;-65
2022/03/17 12:47:27;;;;;;;1.60;1.50;;;24.50;42.90;;;;;;4982402;28;45219;-65
2022/03/17 12:49:53;;;;;;;1.65;1.42;;;24.50;42.80;;;;;;4971058;28;45137;-68
2022/03/17 12:52:21;;;;;;;1.55;1.42;;;24.60;42.90;;;;;;4982835;28;45108;-66
2022/03/17 12:54:51;;;;;;;1.35;1.25;;;24.60;42.80;;;;;;4981048;28;44636;-64
2022/03/17 12:57:17;;;;;;;1.52;1.42;;;24.60;42.80;;;;;;4976774;28;45542;-66
2022/03/17 12:59:43;;;;;;;1.50;1.40;;;24.60;42.80;;;;;;4979243;28;45337;-65
2022/03/17 13:02:09;;;;;;;1.58;1.48;;;24.60;42.80;;;;;;4978944;28;45270;-68
2022/03/17 13:04:36;;;;;;;1.50;1.40;;;24.60;42.80;;;;;;4977106;28;44806;-66
2022/03/17 13:07:05;;;;;;;2.20;1.63;;;24.70;42.90;;;;;;4979389;28;44751;-67
2022/03/17 13:09:31;;;;;;;1.60;1.50;;;24.70;42.80;;;;;;4959600;28;45256;-64
2022/03/17 13:14:51;;;;;;;1.42;1.33;;;24.70;42.70;;;;;;4981153;28;44665;-66
2022/03/17 13:17:40;;;;;;;1.70;1.60;;;24.70;42.80;;;;;;4986443;28;45272;-65
2022/03/17 13:20:10;;;;;;;1.20;1.10;;;24.70;42.60;;;;;;4986031;28;45473;-65
2022/03/17 13:22:40;;;;;;;3.10;1.40;;;24.70;42.70;;;;;;4980358;28;48103;-63
2022/03/17 13:25:07;;;;;;;2.15;1.60;;;24.80;42.80;;;;;;4976613;28;45235;-64
2022/03/17 13:27:38;;;;;;;1.60;1.50;;;24.80;42.80;;;;;;4981355;28;45553;-75
2022/03/17 13:30:11;;;;;;;1.65;1.55;;;24.80;42.70;;;;;;4993012;28;44876;-64
2022/03/17 13:32:37;;;;;;;;;;;24.80;42.70;;;;;;4986836;28;45331;-63
2022/03/17 13:35:04;;;;;;;1.58;1.48;;;24.80;42.50;;;;;;4974392;28;45235;-65
2022/03/17 13:37:34;;;;;;;1.58;1.40;;;24.80;42.80;;;;;;4981019;28;44839;-65
2022/03/17 13:40:01;;;;;;;1.50;1.35;;;24.80;42.70;;;;;;4966955;28;44740;-67
2022/03/17 13:42:27;;;;;;;1.85;1.52;;;24.80;42.70;;;;;;4980090;28;45474;-64
2022/03/17 13:44:55;;;;;;;1.60;1.50;;;24.80;42.80;;;;;;4963888;28;44705;-65
2022/03/17 13:47:25;;;;;;;1.63;1.50;;;24.80;42.70;;;;;;4978740;28;45278;-64
2022/03/17 13:50:09;;;;;;;1.60;1.50;;;24.80;42.70;;;;;;4964948;28;45234;-66
2022/03/17 13:52:35;;;;;;;1.42;1.33;;;24.80;42.60;;;;;;5015175;28;45186;-72
2022/03/17 13:55:00;;;;;;;1.58;1.48;;;24.80;42.80;;;;;;4976150;28;44746;-65
2022/03/17 13:57:26;;;;;;;1.42;1.33;;;24.80;42.80;;;;;;4979753;28;45676;-67
2022/03/17 13:59:51;;;;;;;1.65;1.55;;;24.80;42.80;;;;;;4973381;28;44801;-66
2022/03/17 14:02:21;;;;;;;1.38;1.27;;;24.80;42.80;;;;;;4976067;28;45908;-74
2022/03/17 14:04:56;;;;;;;1.70;1.60;;;24.80;42.70;;;;;;4978480;28;45063;-66
2022/03/17 14:07:22;;;;;;;1.50;1.40;;;24.80;42.70;;;;;;4980920;28;45146;-65
2022/03/17 14:09:48;;;;;;;1.75;1.40;;;24.80;42.80;;;;;;4975136;28;44753;-66
2022/03/17 14:12:14;;;;;;;1.65;1.55;;;24.90;42.90;;;;;;4979580;28;45261;-66
2022/03/17 14:14:39;;;;;;;1.58;1.45;;;24.90;42.80;;;;;;4978206;28;44666;-67
2022/03/17 14:17:05;;;;;;;1.55;1.45;;;24.90;42.80;;;;;;4980660;28;45175;-64
2022/03/17 14:19:30;;;;;;;1.50;1.40;;;24.90;42.80;;;;;;4979436;28;45381;-67
2022/03/17 14:24:41;;;;;;;2.08;1.27;;;24.90;42.80;;;;;;4979145;28;45427;-64
2022/03/17 14:27:07;;;;;;;1.52;1.42;;;24.90;42.90;;;;;;4980242;28;44915;-65
2022/03/17 14:29:33;;;;;;;1.67;1.58;;;24.90;42.90;;;;;;4980713;28;44738;-68
2022/03/17 14:32:00;;;;;;;1.50;1.40;;;24.90;42.90;;;;;;4975417;28;45985;-65
2022/03/17 14:34:26;;;;;;;1.27;1.17;;;24.90;42.90;;;;;;4979357;28;45439;-65
2022/03/17 14:36:53;;;;;;;1.73;1.60;;;24.90;42.90;;;;;;4978632;28;45269;-65
2022/03/17 14:39:19;;;;;;;1.65;1.40;;;24.90;42.90;;;;;;4971194;28;45369;-64
2022/03/17 14:41:44;;;;;;;1.58;1.48;;;24.90;42.90;;;;;;4978124;28;45011;-65
2022/03/17 14:44:10;;;;;;;1.27;1.17;;;24.90;42.90;;;;;;4977613;28;44960;-66
2022/03/17 14:46:36;;;;;;;1.70;1.60;;;24.90;42.90;;;;;;4976430;28;45883;-66
2022/03/17 14:49:06;;;;;;;1.58;1.38;;;24.90;42.90;;;;;;4982918;28;45553;-66
2022/03/17 14:51:33;;;;;;;2.05;1.40;;;25.00;42.90;;;;;;4976281;28;47177;-66
2022/03/17 14:53:58;;;;;;;1.48;1.33;;;24.90;42.90;;;;;;4955756;28;45278;-66
2022/03/17 14:56:25;;;;;;;1.70;1.60;;;24.90;43.00;;;;;;4975125;28;45368;-66
2022/03/17 14:58:54;;;;;;;1.77;1.67;;;24.90;42.90;;;;;;4962922;28;45308;-71
2022/03/17 15:01:22;;;;;;;1.50;1.40;;;24.90;43.00;;;;;;4976985;28;45119;-64
2022/03/17 15:03:48;;;;;;;2.38;2.05;;;24.90;43.00;;;;;;4976141;28;45262;-63
2022/03/17 15:06:15;;;;;;;2.22;1.90;;;24.90;43.00;;;;;;4985897;28;45385;-67
2022/03/17 15:08:42;;;;;;;1.70;1.58;;;24.90;43.00;;;;;;4974458;28;45631;-65
2022/03/17 15:11:07;;;;;;;1.60;1.50;;;24.90;43.00;;;;;;4982044;28;46903;-70
2022/03/17 15:13:33;;;;;;;1.67;1.50;;;25.00;43.00;;;;;;4969914;28;46111;-65
2022/03/17 15:15:59;;;;;;;1.48;1.38;;;24.90;43.00;;;;;;4977158;28;45357;-63
2022/03/17 15:18:24;;;;;;;1.52;1.42;;;24.90;43.00;;;;;;4992692;28;44797;-65
2022/03/17 15:20:50;;;;;;;1.50;1.40;;;24.90;43.00;;;;;;4976662;28;46303;-68
2022/03/17 15:23:16;;;;;;;1.30;1.20;;;24.90;43.00;;;;;;4979465;28;45700;-67
2022/03/17 15:25:41;;;;;;;1.33;1.23;;;24.90;43.10;;;;;;5000218;28;45710;-72
2022/03/17 15:30:51;;;;;;;1.67;1.58;;;24.90;43.10;;;;;;4970715;28;46955;-72
2022/03/17 15:33:17;;;;;;;1.77;1.60;;;24.90;43.10;;;;;;4970865;28;45423;-69
2022/03/17 15:35:44;;;;;;;1.40;1.30;;;24.90;43.70;;;;;;4975262;28;45600;-68
2022/03/17 15:38:09;;;;;;;1.38;1.27;;;24.90;43.10;;;;;;4971996;28;45749;-70
2022/03/17 15:40:40;;;;;;;1.50;1.40;;;24.90;43.10;;;;;;4971016;28;46040;-70
2022/03/17 15:43:05;;;;;;;1.33;1.23;;;24.90;43.10;;;;;;4957389;28;45551;-71
2022/03/17 15:45:34;;;;;;;;;;;25.00;43.10;;;;;;4975881;28;45495;-68
2022/03/17 15:48:00;;;;;;;1.30;1.20;;;24.90;43.10;;;;;;4984275;28;45451;-69
2022/03/17 15:50:26;;;;;;;1.45;1.17;;;24.90;43.10;;;;;;4954653;28;48193;-71
2022/03/17 15:52:54;;;;;;;1.80;1.70;;;24.90;43.10;;;;;;4974412;28;45121;-69
2022/03/17 15:55:20;;;;;;;1.75;1.42;;;24.90;43.10;;;;;;4974139;28;46206;-68
2022/03/17 15:57:45;;;;;;;1.45;1.35;;;25.00;43.20;;;;;;4979814;28;45207;-67
2022/03/17 16:00:11;;;;;;;1.70;1.60;;;25.00;43.20;;;;;;4972358;28;46117;-70
2022/03/17 16:02:37;;;;;;;1.45;1.35;;;25.00;43.20;;;;;;4967315;28;44967;-71
2022/03/17 16:05:03;;;;;;;1.70;1.60;;;25.00;43.80;;;;;;4956899;28;45526;-72
2022/03/17 16:07:29;;;;;;;1.80;1.70;;;24.90;43.10;;;;;;4977755;28;45556;-72
2022/03/17 16:15:24;;;;;;;2.17;1.65;;;25.00;43.20;;;;;;4969931;28;45090;-57
2022/03/17 16:17:49;;;;;;;1.80;1.70;;;25.00;43.20;;;;;;4971119;28;45757;-61
2022/03/17 16:20:15;;;;;;;1.50;1.40;;;25.00;43.20;;;;;;4948883;28;47154;-58
2022/03/17 16:22:45;;;;;;;2.08;1.63;;;25.00;43.30;;;;;;4964019;28;45826;-60
2022/03/17 16:25:11;;;;;;;1.65;1.55;;;24.90;43.30;;;;;;4976936;28;44836;-57
2022/03/17 16:27:38;;;;;;;1.80;1.70;;;24.80;43.30;;;;;;4970252;28;44828;-57
2022/03/17 16:30:05;;;;;;;1.80;1.70;;;24.80;43.40;;;;;;4976808;28;45644;-57
2022/03/17 16:32:30;;;;;;;2.08;1.92;;;24.80;43.50;;;;;;4954129;28;45827;-58
2022/03/17 16:34:57;;;;;;;1.70;1.60;;;24.70;43.60;;;;;;4977696;28;44885;-58
2022/03/17 16:37:24;;;;;;;1.77;1.67;;;24.70;43.70;;;;;;4971670;28;45598;-56
2022/03/17 16:39:50;;;;;;;2.17;1.80;;;24.60;43.80;;;;;;4972421;28;45494;-57
2022/03/17 16:42:16;;;;;;;2.10;1.90;;;24.50;43.80;;;;;;4972303;28;45035;-59
2022/03/17 16:44:42;;;;;;;1.52;1.42;;;24.50;43.90;;;;;;4969275;28;45377;-59
2022/03/17 16:47:07;;;;;;;1.70;1.60;;;24.40;43.90;;;;;;4971764;28;45470;-58
2022/03/17 16:49:33;;;;;;;1.90;1.80;;;24.40;44.00;;;;;;4973857;28;46026;-59
2022/03/17 16:51:59;;;;;;;1.95;1.75;;;24.40;44.10;;;;;;4952260;28;45339;-58
2022/03/17 16:54:26;;;;;;;2.10;1.90;;;24.30;44.20;;;;;;4972283;28;45387;-59
2022/03/17 16:56:58;;;;;;;2.03;1.92;;;24.20;44.30;;;;;;4970946;28;45371;-58
2022/03/17 16:59:24;;;;;;;1.98;1.80;;;24.20;44.40;;;;;;4969621;28;46123;-57
2022/03/17 17:01:50;;;;;;;1.52;1.42;;;24.10;44.40;;;;;;4969458;28;45765;-59
2022/03/17 17:04:15;;;;;;;1.73;1.63;;;24.10;44.50;;;;;;4973232;28;44960;-58
2022/03/17 17:06:41;;;;;;;2.00;1.88;;;24.00;44.50;;;;;;4988519;28;44700;-58
2022/03/17 17:09:07;;;;;;;2.08;1.88;;;24.00;44.60;;;;;;4970483;28;45867;-57
2022/03/17 17:11:33;;;;;;;2.95;2.40;;;24.00;44.70;;;;;;4969421;28;45179;-57
2022/03/17 17:13:59;;;;;;;1.73;1.63;;;23.90;44.70;;;;;;4966801;28;45271;-55
2022/03/17 17:16:25;;;;;;;2.38;2.17;;;23.80;44.80;;;;;;4964846;28;45313;-60